createdAt,value
2023-03-18T00:01:01.145Z,75.24
2023-03-18T00:03:56.772Z,70.1
2023-03-18T00:06:54.224Z,62.52
2023-03-18T00:09:50.830Z,58.56
2023-03-18T00:12:47.425Z,51.620000000000005
2023-03-18T00:15:43.935Z,40.919999999999995
2023-03-18T00:18:40.562Z,44.60000000000001
2023-03-18T00:21:37.002Z,35.74
2023-03-18T00:24:32.611Z,37.459999999999994
2023-03-18T00:27:30.174Z,34.76
2023-03-18T00:30:25.676Z,37.96
2023-03-18T00:36:27.841Z,34.2
2023-03-18T00:39:32.371Z,36.48
2023-03-18T00:42:35.921Z,33.879999999999995
2023-03-18T00:45:32.425Z,44.339999999999996
2023-03-18T00:48:30.042Z,40.4
2023-03-18T00:51:27.581Z,40.86
2023-03-18T00:54:26.118Z,44.019999999999996
2023-03-18T00:57:22.664Z,40.779999999999994
2023-03-18T01:00:21.215Z,39.019999999999996
2023-03-18T01:03:17.785Z,44.7
2023-03-18T01:06:15.349Z,40.9
2023-03-18T01:09:12.929Z,37.66
2023-03-18T01:12:09.468Z,36.620000000000005
2023-03-18T01:15:06.034Z,38.5
2023-03-18T01:18:01.605Z,35.620000000000005
2023-03-18T01:20:57.116Z,38.9
2023-03-18T01:27:00.227Z,41.239999999999995
2023-03-18T01:29:57.844Z,39.36
2023-03-18T01:32:54.511Z,36.2
2023-03-18T01:35:53.912Z,38.02
2023-03-18T01:38:49.472Z,37.88000000000001
2023-03-18T01:41:46.051Z,37.419999999999995
2023-03-18T01:44:45.556Z,34.58
2023-03-18T01:47:44.106Z,36.94
2023-03-18T01:50:42.745Z,35.50000000000001
2023-03-18T01:53:42.213Z,35.66
2023-03-18T01:56:39.777Z,30.639999999999997
2023-03-18T01:59:40.356Z,33.919999999999995
2023-03-18T02:02:39.879Z,33.22
2023-03-18T02:05:38.453Z,33.779999999999994
2023-03-18T02:08:34.987Z,32.660000000000004
2023-03-18T02:11:31.602Z,31.139999999999997
2023-03-18T02:14:27.106Z,30.5
2023-03-18T02:17:27.699Z,38.32
2023-03-18T02:20:36.177Z,37.72
2023-03-18T02:23:39.940Z,37.86
2023-03-18T02:26:45.345Z,42.5
2023-03-18T02:29:43.854Z,40.68
2023-03-18T02:32:42.416Z,39.019999999999996
2023-03-18T02:35:42.970Z,32.540000000000006
2023-03-18T02:38:40.503Z,33.72
2023-03-18T02:41:37.050Z,35.58
2023-03-18T02:44:37.640Z,35.94
2023-03-18T02:47:37.194Z,40.86000000000001
2023-03-18T02:50:34.015Z,43.019999999999996
2023-03-18T02:53:30.229Z,39
2023-03-18T02:59:32.439Z,31.880000000000003
2023-03-18T03:02:29.013Z,33.220000000000006
2023-03-18T03:05:24.508Z,35.92
2023-03-18T03:08:21.047Z,34.4
2023-03-18T03:11:17.584Z,40
2023-03-18T03:14:15.173Z,46.4
2023-03-18T03:17:10.708Z,44.46
2023-03-18T03:20:07.277Z,37.220000000000006
2023-03-18T03:23:02.797Z,40.4
2023-03-18T03:25:59.434Z,42.78
2023-03-18T03:28:55.938Z,43.480000000000004
2023-03-18T03:31:51.505Z,33.86
2023-03-18T03:34:48.065Z,43.08
2023-03-18T03:37:43.656Z,40.9
2023-03-18T03:40:40.218Z,46.18
2023-03-18T03:43:35.797Z,38.24
2023-03-18T03:46:32.411Z,39.720000000000006
2023-03-18T03:49:27.902Z,40.74
2023-03-18T03:52:24.447Z,46.98
2023-03-18T03:55:20.943Z,49.58
2023-03-18T03:58:16.564Z,57.879999999999995
2023-03-18T04:01:12.123Z,47.1
2023-03-18T04:04:07.669Z,37.14
2023-03-18T04:07:04.264Z,34.260000000000005
2023-03-18T04:10:00.759Z,29.839999999999996
2023-03-18T04:12:56.343Z,29.96
2023-03-18T04:15:55.001Z,28.32
2023-03-18T04:18:50.456Z,26.140000000000004
2023-03-18T04:21:46.991Z,27.9
2023-03-18T04:24:44.582Z,29.540000000000003
2023-03-18T04:27:41.129Z,27.54
2023-03-18T04:30:37.712Z,26.559999999999995
2023-03-18T04:33:34.306Z,25.74
2023-03-18T04:39:36.347Z,23.02
2023-03-18T04:42:32.938Z,27.28
2023-03-18T04:45:30.435Z,25.8
2023-03-18T04:48:27.035Z,27.74
2023-03-18T04:51:22.597Z,26.919999999999998
2023-03-18T04:54:18.126Z,28.520000000000003
2023-03-18T04:57:16.730Z,25
2023-03-18T05:00:17.309Z,24.079999999999995
2023-03-18T05:03:12.830Z,27.04
2023-03-18T05:06:09.408Z,26.439999999999998
2023-03-18T05:09:05.950Z,24.839999999999996
2023-03-18T05:12:01.504Z,27.96
2023-03-18T05:14:57.050Z,33.160000000000004
2023-03-18T05:17:53.641Z,41.32
2023-03-18T05:20:50.184Z,41.08
2023-03-18T05:23:45.718Z,42.6
2023-03-18T05:26:44.279Z,40.279999999999994
2023-03-18T05:29:41.837Z,36.44
2023-03-18T05:32:38.496Z,28.159999999999997
2023-03-18T05:35:35.973Z,31.02
2023-03-18T05:38:31.499Z,30.5
2023-03-18T05:41:27.103Z,27.979999999999997
2023-03-18T05:44:23.630Z,28.560000000000002
2023-03-18T05:47:19.179Z,31.619999999999997
2023-03-18T05:50:14.783Z,87.16
2023-03-18T05:56:15.826Z,117.31999999999998
2023-03-18T05:59:11.409Z,67.4
2023-03-18T06:02:07.015Z,49.160000000000004
2023-03-18T06:05:02.578Z,43.7
2023-03-18T06:08:00.986Z,33.92
2023-03-18T06:10:56.646Z,28.940000000000005
2023-03-18T06:13:53.234Z,49.7
2023-03-18T06:16:48.816Z,46.46
2023-03-18T06:19:45.324Z,33.62
2023-03-18T06:22:43.909Z,30.24
2023-03-18T06:25:41.460Z,35.480000000000004
2023-03-18T06:28:39.009Z,40.9
2023-03-18T06:31:37.549Z,30.28
2023-03-18T06:34:35.133Z,31.839999999999996
2023-03-18T06:37:30.660Z,40.54
2023-03-18T06:40:26.236Z,54.720000000000006
2023-03-18T06:43:21.810Z,65.8
2023-03-18T06:46:18.496Z,28.82
2023-03-18T06:49:14.969Z,23.860000000000003
2023-03-18T06:52:10.482Z,23.660000000000004
2023-03-18T06:55:07.046Z,29.3
2023-03-18T06:58:02.560Z,25.68
2023-03-18T07:00:58.242Z,16.359999999999996
2023-03-18T07:07:00.225Z,16.08
2023-03-18T07:09:55.811Z,13.959999999999999
2023-03-18T07:12:52.353Z,12.32
2023-03-18T07:15:48.962Z,12.58
2023-03-18T07:18:45.470Z,15.379999999999999
2023-03-18T07:21:43.077Z,11.44
2023-03-18T07:24:38.580Z,11.24
2023-03-18T07:27:34.142Z,10.32
2023-03-18T07:30:30.716Z,13.600000000000003
2023-03-18T07:33:27.293Z,13.540000000000001
2023-03-18T07:36:22.820Z,13.02
2023-03-18T07:39:18.399Z,12.7
2023-03-18T07:42:13.982Z,11.82
2023-03-18T07:45:10.554Z,11.940000000000001
2023-03-18T07:48:07.083Z,12.940000000000001
2023-03-18T07:51:02.661Z,15.180000000000001
2023-03-18T07:53:59.184Z,8.739999999999998
2023-03-18T07:56:54.801Z,12.18
2023-03-18T07:59:50.313Z,11.540000000000001
2023-03-18T08:02:45.871Z,10.08
2023-03-18T08:05:41.469Z,23.919999999999998
2023-03-18T08:08:37.003Z,11.08
2023-03-18T08:11:33.524Z,10.08
2023-03-18T08:14:29.075Z,8.4
2023-03-18T08:17:26.709Z,10.5
2023-03-18T08:20:23.335Z,11.64
2023-03-18T08:23:18.777Z,12.040000000000001
2023-03-18T08:26:15.356Z,11.52
2023-03-18T08:29:10.931Z,8.999999999999998
2023-03-18T08:32:07.472Z,17.940000000000005
2023-03-18T08:35:05.036Z,8.76
2023-03-18T08:38:00.580Z,11.02
2023-03-18T08:40:58.170Z,6.639999999999999
2023-03-18T08:43:56.762Z,7.1
2023-03-18T08:46:52.286Z,8.58
2023-03-18T08:49:50.344Z,9.5
2023-03-18T08:52:47.370Z,9.879999999999999
2023-03-18T08:55:42.939Z,12.72
2023-03-18T08:58:39.492Z,7.8
2023-03-18T09:01:38.188Z,9.639999999999999
2023-03-18T09:04:33.650Z,11.539999999999997
2023-03-18T09:07:30.297Z,9.3
2023-03-18T09:10:26.772Z,10.959999999999999
2023-03-18T09:13:22.256Z,11.72
2023-03-18T09:19:23.418Z,7.340000000000001
2023-03-18T09:22:18.929Z,8.4
2023-03-18T09:25:16.523Z,12.76
2023-03-18T09:28:12.088Z,10.58
2023-03-18T09:31:09.662Z,12.920000000000002
2023-03-18T09:34:06.192Z,7.279999999999999
2023-03-18T09:37:01.711Z,10.940000000000001
2023-03-18T09:39:58.290Z,9.28
2023-03-18T09:43:05.852Z,9.74
2023-03-18T09:46:06.537Z,8.76
2023-03-18T09:52:24.448Z,7.619999999999999
2023-03-18T09:55:27.004Z,9.059999999999999
2023-03-18T09:58:28.498Z,8.040000000000001
2023-03-18T10:01:28.222Z,8.719999999999999
2023-03-18T10:04:29.611Z,8.040000000000001
2023-03-18T10:07:32.158Z,8.34
2023-03-18T10:10:34.715Z,6.9799999999999995
2023-03-18T10:13:39.270Z,9.200000000000001
2023-03-18T10:16:41.765Z,7.4
2023-03-18T10:19:38.365Z,8.16
2023-03-18T10:22:53.849Z,9.66
2023-03-18T10:25:57.399Z,11.020000000000001
2023-03-18T10:29:08.920Z,9.76
2023-03-18T10:32:17.491Z,7.659999999999999
2023-03-18T10:35:21.996Z,7.38
2023-03-18T10:38:26.544Z,8.02
2023-03-18T10:41:26.445Z,11.780000000000001
2023-03-18T10:44:26.618Z,6.5
2023-03-18T10:47:29.338Z,6.8
2023-03-18T10:50:35.306Z,7.3
2023-03-18T10:53:39.249Z,5
2023-03-18T10:59:45.303Z,8.98
2023-03-18T11:02:45.980Z,8.24
2023-03-18T11:05:51.394Z,7.88
2023-03-18T11:08:59.928Z,7.5200000000000005
2023-03-18T11:12:03.505Z,7.62
2023-03-18T11:15:06.068Z,7.2
2023-03-18T11:18:04.618Z,5.460000000000001
2023-03-18T11:21:13.280Z,4.72
2023-03-18T11:24:35.650Z,7.6800000000000015
2023-03-18T11:27:38.179Z,7.720000000000001
2023-03-18T11:30:42.958Z,11.440000000000001
2023-03-18T11:33:44.266Z,6.859999999999999
2023-03-18T11:36:41.795Z,8.24
2023-03-18T11:39:39.319Z,12.9
2023-03-18T11:42:40.933Z,5.24
2023-03-18T11:45:44.431Z,8.34
2023-03-18T11:48:46.001Z,10.219999999999999
2023-03-18T11:51:57.469Z,5.1
2023-03-18T11:55:05.041Z,6.860000000000001
2023-03-18T11:58:12.566Z,4.1
2023-03-18T12:01:19.085Z,7.6
2023-03-18T12:04:36.647Z,3.72
2023-03-18T12:07:47.150Z,5.62
2023-03-18T12:10:55.688Z,4.78
2023-03-18T12:14:06.181Z,4.74
2023-03-18T12:17:20.717Z,5.76
2023-03-18T12:20:34.809Z,5.18
2023-03-18T12:23:50.193Z,5.340000000000001
2023-03-18T12:26:56.276Z,4.380000000000001
2023-03-18T12:30:11.792Z,5.14
2023-03-18T12:33:18.303Z,3.4200000000000004
2023-03-18T12:36:27.845Z,7.6
2023-03-18T12:39:38.338Z,12.38
2023-03-18T12:42:44.924Z,5.42
2023-03-18T12:45:44.521Z,3.8
2023-03-18T12:48:49.010Z,5.0200000000000005
2023-03-18T12:51:49.539Z,3.8
2023-03-18T12:54:56.054Z,7.38
2023-03-18T12:57:56.613Z,7.419999999999999
2023-03-18T13:01:00.278Z,6.62
2023-03-18T13:04:02.726Z,4.88
2023-03-18T13:07:05.272Z,4.46
2023-03-18T13:10:12.832Z,10.12
2023-03-18T13:13:12.323Z,4.999999999999999
2023-03-18T13:16:14.947Z,5.4399999999999995
2023-03-18T13:19:14.431Z,8.219999999999999
2023-03-18T13:22:20.953Z,5.32
2023-03-18T13:25:30.605Z,7.5
2023-03-18T13:28:44.006Z,4.779999999999999
2023-03-18T13:31:49.571Z,7.3199999999999985
2023-03-18T13:35:09.993Z,9.3
2023-03-18T13:38:29.563Z,3.2400000000000007
2023-03-18T13:41:40.037Z,5.04
2023-03-18T13:44:44.630Z,5.799999999999999
2023-03-18T13:50:52.676Z,6.140000000000001
2023-03-18T13:53:54.205Z,4.159999999999999
2023-03-18T13:57:04.748Z,5.779999999999999
2023-03-18T14:00:14.885Z,3.72
2023-03-18T14:03:19.910Z,6.7
2023-03-18T14:06:21.345Z,18.86
2023-03-18T14:09:27.864Z,28.380000000000003
2023-03-18T14:12:34.411Z,12.819999999999999
2023-03-18T14:15:39.069Z,26.22
2023-03-18T14:18:37.533Z,28.159999999999997
2023-03-18T14:21:42.223Z,17.64
2023-03-18T14:24:45.620Z,7.139999999999999
2023-03-18T14:27:45.146Z,9.3
2023-03-18T14:30:57.792Z,10.559999999999999
2023-03-18T14:34:10.200Z,10.24
2023-03-18T14:37:19.740Z,24.56
2023-03-18T14:40:25.252Z,8.14
2023-03-18T14:43:26.766Z,7.779999999999999
2023-03-18T14:46:31.462Z,6.42
2023-03-18T14:49:32.924Z,5.220000000000001
2023-03-18T14:52:30.433Z,7.279999999999999
2023-03-18T14:55:28.990Z,4.42
2023-03-18T14:58:30.436Z,4.94
2023-03-18T15:01:36.125Z,5.02
2023-03-18T15:04:33.414Z,4.52
2023-03-18T15:07:34.178Z,10.000000000000002
2023-03-18T15:10:32.708Z,6.9
2023-03-18T15:13:30.317Z,6.74
2023-03-18T15:16:32.998Z,5.94
2023-03-18T15:19:29.406Z,5.68
2023-03-18T15:22:28.988Z,6.9
2023-03-18T15:28:35.026Z,6.04
2023-03-18T15:31:33.681Z,5.66
2023-03-18T15:34:41.134Z,7.68
2023-03-18T15:37:42.728Z,6.6
2023-03-18T15:40:49.176Z,16.919999999999998
2023-03-18T15:43:50.770Z,28.96
2023-03-18T15:46:55.303Z,13.48
2023-03-18T15:50:00.832Z,10.48
2023-03-18T15:53:02.363Z,10.1
2023-03-18T15:56:13.909Z,18.02
2023-03-18T15:59:13.441Z,15.839999999999998
2023-03-18T16:02:12.989Z,17.26
2023-03-18T16:05:14.530Z,17.119999999999997
2023-03-18T16:11:16.862Z,11.14
2023-03-18T16:14:16.176Z,18.64
2023-03-18T16:17:21.569Z,10.52
2023-03-18T16:20:20.280Z,16.48
2023-03-18T16:23:17.842Z,16.34
2023-03-18T16:26:15.387Z,13.620000000000001
2023-03-18T16:29:18.939Z,14.580000000000002
2023-03-18T16:32:19.576Z,16.66
2023-03-18T16:35:20.458Z,26.420000000000005
2023-03-18T16:38:17.616Z,27.4
2023-03-18T16:41:15.118Z,23.02
2023-03-18T16:44:12.679Z,33.68000000000001
2023-03-18T16:47:20.241Z,29.440000000000005
2023-03-18T16:50:22.797Z,20.84
2023-03-18T16:53:21.441Z,22.140000000000004
2023-03-18T16:56:20.929Z,31.7
2023-03-18T16:59:19.476Z,34.08
2023-03-18T17:02:30.975Z,44.339999999999996
2023-03-18T17:05:31.957Z,52.660000000000004
2023-03-18T17:08:28.056Z,35.660000000000004
2023-03-18T17:11:34.465Z,43.2
2023-03-18T17:14:33.156Z,37.06
2023-03-18T17:17:37.181Z,25.2
2023-03-18T17:20:33.239Z,16.7
2023-03-18T17:23:37.781Z,21
2023-03-18T17:26:36.485Z,31.919999999999998
2023-03-18T17:29:32.916Z,39.6
2023-03-18T17:32:30.599Z,70.02000000000001
2023-03-18T17:35:31.224Z,24.94
2023-03-18T17:38:30.632Z,25.660000000000004
2023-03-18T17:41:27.100Z,32.94
2023-03-18T17:44:24.677Z,30.440000000000005
2023-03-18T17:47:25.209Z,25.360000000000003
2023-03-18T17:50:31.802Z,23.6
2023-03-18T17:53:30.289Z,25.1
2023-03-18T17:56:37.823Z,27.68
2023-03-18T17:59:36.454Z,28.339999999999996
2023-03-18T18:02:32.999Z,25.839999999999996
2023-03-18T18:05:38.468Z,18.76
2023-03-18T18:08:44.568Z,19.64
2023-03-18T18:11:46.516Z,24.220000000000006
2023-03-18T18:14:47.105Z,37.46
2023-03-18T18:17:46.669Z,39.220000000000006
2023-03-18T18:20:49.230Z,29.5
2023-03-18T18:23:54.753Z,32
2023-03-18T18:26:53.352Z,32.3
2023-03-18T18:29:52.855Z,33.98
2023-03-18T18:32:48.435Z,29.4
2023-03-18T18:35:46.002Z,21.68
2023-03-18T18:38:45.533Z,42.8
2023-03-18T18:41:41.054Z,89.16
2023-03-18T18:44:37.664Z,47.019999999999996
2023-03-18T18:47:35.179Z,47.239999999999995
2023-03-18T18:50:32.749Z,34.339999999999996
2023-03-18T18:53:29.281Z,29.919999999999998
2023-03-18T18:56:31.934Z,26.879999999999995
2023-03-18T18:59:31.406Z,24.3
2023-03-18T19:02:29.935Z,21.16
2023-03-18T19:05:25.496Z,19.32
2023-03-18T19:08:25.108Z,24.14
2023-03-18T19:11:20.630Z,18.66
2023-03-18T19:14:19.215Z,22.1
2023-03-18T19:17:15.807Z,25.22
2023-03-18T19:20:23.283Z,20.660000000000004
2023-03-18T19:23:21.842Z,26.4
2023-03-18T19:26:19.417Z,24.140000000000004
2023-03-18T19:32:38.525Z,20.32
2023-03-18T19:35:34.233Z,21.8
2023-03-18T19:38:31.546Z,22.919999999999998
2023-03-18T19:41:28.144Z,23.660000000000004
2023-03-18T19:44:24.746Z,24.2
2023-03-18T19:47:23.226Z,30.48
2023-03-18T19:50:19.812Z,28.439999999999998
2023-03-18T19:53:16.358Z,22.98
2023-03-18T19:56:19.901Z,23.12
2023-03-18T19:59:19.415Z,26.82
2023-03-18T20:02:19.038Z,15.560000000000002
2023-03-18T20:05:16.588Z,20.66
2023-03-18T20:08:13.126Z,16.46
2023-03-18T20:11:11.707Z,18
2023-03-18T20:14:12.197Z,15.16
2023-03-18T20:17:13.769Z,15.8
2023-03-18T20:20:12.260Z,14.4
2023-03-18T20:23:11.837Z,16.32
2023-03-18T20:26:08.482Z,16.919999999999998
2023-03-18T20:29:09.926Z,23.32
2023-03-18T20:32:05.564Z,19.2
2023-03-18T20:35:03.511Z,16.68
2023-03-18T20:41:12.155Z,17.540000000000003
2023-03-18T20:44:09.742Z,18.700000000000003
2023-03-18T20:47:06.314Z,15.759999999999996
2023-03-18T20:50:01.867Z,14.5
2023-03-18T20:53:04.391Z,17.559999999999995
2023-03-18T20:56:01.955Z,23.080000000000002
2023-03-18T20:58:58.456Z,20.7
2023-03-18T21:01:54.101Z,16.98
2023-03-18T21:04:49.637Z,23.98
2023-03-18T21:07:47.162Z,19.64
2023-03-18T21:10:47.717Z,18.68
2023-03-18T21:13:49.293Z,23.3
2023-03-18T21:16:45.880Z,19.9
2023-03-18T21:19:42.412Z,18.36
2023-03-18T21:22:38.975Z,20.240000000000002
2023-03-18T21:25:34.758Z,23.32
2023-03-18T21:28:30.171Z,19.74
2023-03-18T21:31:28.709Z,20.44
2023-03-18T21:34:26.177Z,19
2023-03-18T21:37:22.693Z,21.200000000000003
2023-03-18T21:40:20.302Z,19.24
2023-03-18T21:43:24.843Z,22.979999999999997
2023-03-18T21:46:24.625Z,15.319999999999999
2023-03-18T21:49:20.970Z,17.919999999999998
2023-03-18T21:52:18.533Z,14.16
2023-03-18T21:55:14.062Z,10.7
2023-03-18T21:58:12.678Z,13.38
2023-03-18T22:01:14.300Z,13.080000000000002
2023-03-18T22:04:09.752Z,12.2
2023-03-18T22:07:07.308Z,12.76
2023-03-18T22:10:02.823Z,13
2023-03-18T22:13:00.404Z,11.64
2023-03-18T22:16:06.040Z,13.86
2023-03-18T22:19:01.469Z,9.72
2023-03-18T22:21:59.077Z,13.74
2023-03-18T22:24:54.604Z,16.580000000000002
2023-03-18T22:27:52.178Z,18.74
2023-03-18T22:30:51.819Z,18.4
2023-03-18T22:33:51.278Z,16.3
2023-03-18T22:36:48.836Z,18.14
2023-03-18T22:39:49.401Z,16.3
2023-03-18T22:42:51.934Z,12.9
2023-03-18T22:45:53.457Z,15.9
2023-03-18T22:48:53.994Z,19.1
2023-03-18T22:51:55.538Z,20.28
2023-03-18T22:55:01.126Z,16.4
2023-03-18T22:58:01.672Z,14.16
2023-03-18T23:01:06.213Z,14.420000000000002
2023-03-18T23:04:09.701Z,16.14
2023-03-18T23:07:18.232Z,16.82
2023-03-18T23:10:19.806Z,12.86
2023-03-18T23:13:24.368Z,10.92
2023-03-18T23:16:25.984Z,11.379999999999999
2023-03-18T23:19:22.425Z,11.440000000000001
2023-03-18T23:22:20.988Z,15.36
2023-03-18T23:25:17.506Z,12.419999999999998
2023-03-18T23:28:13.157Z,13.059999999999999
2023-03-18T23:31:11.704Z,14.74
2023-03-18T23:34:07.224Z,13.64
2023-03-18T23:37:03.810Z,11.559999999999999
2023-03-18T23:39:59.370Z,11.24
2023-03-18T23:42:54.912Z,14.24
2023-03-18T23:45:50.574Z,15.440000000000003
2023-03-18T23:51:52.593Z,11.86
2023-03-18T23:54:48.129Z,16.220000000000002
2023-03-18T23:57:43.728Z,14.720000000000002
